Terminal Aerodrome Forecast
Issued by NWS

Home | Current Version | Previous Version | Text Only | Print | Product List | Glossary On
Versions: 1 2 3 4 5 6 7 8 9 10 11 12 13 14 15 16 17 18 19 20 21 22 23 24 25 26 27 28 29
000
FTUS41 KOKX 040531
TAFGON
TAF
KGON 040531Z 0406/0506 VRB03KT P6SM FEW060 BKN200
     FM041200 12005KT P6SM FEW060 OVC100
     FM041800 10007KT P6SM SCT035 OVC060
      TEMPO 0419/0421 5SM -RA BKN035
     FM042100 04007KT P6SM SCT035 OVC060
      TEMPO 0421/0423 5SM -RA BKN035
     FM050300 VRB03KT P6SM BKN060=

USA.gov is the U.S. government's official web portal to all federal, state and local government web resources and services.